Details From DABC - Mohamed Boudiaf Intl
To DAAG - Alger Houari Boumediene
Flight Number -
Tags Generated
Created
Modified
Stats Distance 168 nm / 311 km
Max Altitude 0 ft / 0 m
Waypoints 2
Social Downloads 4
Likes 0
Share VATSIM

Download

Looking for another format? Having issues loading an existing format? Contact us
Advertisement - Login to hide

Notes

Generated

Route

DABC DAAG

ID Type Via Altitude Latitude Longitude Leg Dist Tot Dist Heading (true) Name
O DABC APT - 0 ft / 0 m 36.28444˚ 6.61472˚ - 0 nm - -
O DAAG APT - 0 ft / 0 m 36.69213˚ 3.17083˚ 168 nm 168 nm 279° / 277° -

Altitude Profile

Advertisement - Login to hide

Weather


0- 5 10 15 20 25 30 35+ Temperature / ° C

Clouds and Precipitation
Forecast for 2017-12-15 00:00 UTC. Updated 2 hours ago

Ground ~20,000 ft ~40,000 ft Winds

DABC

Details ICAO DABC (CZL)
Name MOHAMED BOUDIAF INTL
Region Algeria
Timezone Africa/Algiers (UTC+1.0)
Stats Elevation 2,265 ft / 690 m (AMSL)
Location 36.276042° 6.620278°
Runways 2
Magnetic Variation 1.731° E

METAR

DABC 142230Z VRB01KT CAVOK 06/01 Q1019

Decode

TAF

TAF DABC 141100Z 1412/1512 30010KT CAVOK BECMG 1422/1424 22006KT PROB30 TEMPO 1502/1508 2000 BR BKN013 BECMG 1510/1512 26014KT

Decode

Departure Runways

ID Width Length Bearing (true) Bearing (mag) Surface Threshold Offset Overrun Length
14 148 ft / 45 m 7,886 ft / 2,404 m 136.03° 134.30° Asphalt 0 ft / 0 m 340 ft / 104 m
16 148 ft / 45 m 9,871 ft / 3,009 m 159.14° 157.41° Asphalt 0 ft / 0 m 400 ft / 122 m
32 148 ft / 45 m 7,886 ft / 2,404 m 316.04° 314.31° Asphalt 0 ft / 0 m 200 ft / 61 m
34 148 ft / 45 m 9,871 ft / 3,009 m 339.15° 337.42° Asphalt 0 ft / 0 m 400 ft / 122 m

DAAG

Details ICAO DAAG (ALG)
Name Alger Houari Boumediene
Region Algeria
Timezone Africa/Algiers (UTC+1.0)
Stats Elevation 82 ft / 25 m (AMSL)
Location 36.697521° 3.213079°
Runways 2
Magnetic Variation 1.057° E

METAR

DAAG 142230Z 16004KT CAVOK 07/06 Q1018

Decode

TAF

TAF DAAG 141700Z 1418/1518 VRB02KT CAVOK BECMG 1508/1511 26010KT

Decode

Destination Runways

ID Width Length Bearing (true) Bearing (mag) Surface Threshold Offset Overrun Length
05 197 ft / 60 m 11,459 ft / 3,493 m 52.87° 51.81° Asphalt 0 ft / 0 m 0 ft / 0 m
09 148 ft / 45 m 11,442 ft / 3,487 m 91.75° 90.69° Asphalt 0 ft / 0 m 1,017 ft / 310 m
23 197 ft / 60 m 11,459 ft / 3,493 m 232.89° 231.83° Asphalt 0 ft / 0 m 0 ft / 0 m
27 148 ft / 45 m 11,442 ft / 3,487 m 271.78° 270.72° Asphalt 0 ft / 0 m 0 ft / 0 m

Approach Navaids

Runway Type Ident Frequency Range Bearing (true) Bearing (mag) Slope Elevation
09 Localiser HB 108.50 MHz 18 nm / 33 km 91.73° 90.67° - 82 ft / 25 m (AMSL)
09 Glidescope HB 108.50 MHz 10 nm / 19 km 91.77° 90.71° 3.00° 82 ft / 25 m (AMSL)
23 Localiser AG 110.30 MHz 18 nm / 33 km 232.74° 231.68° - 82 ft / 25 m (AMSL)
23 Glidescope AG 110.30 MHz 10 nm / 19 km 232.88° 231.83° 3.00° 82 ft / 25 m (AMSL)

Popular Alternatives